Time;durP1;ratioP1;P1;durP2;ratioP2;P2;SDS_P1;SDS_P2;PMS_P1;PMS_P2;Temp;Humidity;BMP_temperature;BMP_pressure;BME280_temperature;BME280_humidity;BME280_pressure;Samples;Min_cycle;Max_cycle;Signal;HPM_P1;HPM_P2
2021/07/24 05:46:31;;;;;;;7.22;4.00;;;24.30;96.70;;;;;;4907927;29;20075;-73
2021/07/24 05:49:00;;;;;;;7.53;4.28;;;24.20;96.70;;;;;;4898556;29;20510;-74
2021/07/24 05:51:28;;;;;;;6.55;4.32;;;24.20;96.70;;;;;;4907146;29;20052;-74
2021/07/24 05:53:56;;;;;;;8.25;4.28;;;24.10;96.70;;;;;;4909512;29;20044;-74
2021/07/24 05:56:25;;;;;;;4.97;4.47;;;24.10;96.70;;;;;;4904430;29;20036;-74
2021/07/24 05:58:53;;;;;;;4.25;3.85;;;24.10;96.70;;;;;;4905584;29;20052;-73
2021/07/24 06:01:22;;;;;;;6.82;4.03;;;24.10;96.70;;;;;;4908409;29;20055;-73
2021/07/24 06:03:52;;;;;;;10.27;4.47;;;24.20;96.70;;;;;;4903082;29;20496;-74
2021/07/24 06:06:20;;;;;;;5.47;4.65;;;24.20;96.70;;;;;;4908246;29;20107;-73
2021/07/24 06:08:48;;;;;;;6.72;4.60;;;24.20;96.70;;;;;;4906960;29;20037;-74
2021/07/24 06:11:17;;;;;;;7.53;4.70;;;24.30;96.70;;;;;;4921118;29;20085;-73
2021/07/24 06:13:45;;;;;;;9.60;4.40;;;24.30;96.70;;;;;;4902922;29;20048;-73
2021/07/24 06:16:14;;;;;;;8.25;4.95;;;24.40;96.70;;;;;;4904958;29;20055;-74
2021/07/24 06:18:42;;;;;;;8.25;6.97;;;24.40;96.70;;;;;;4917899;29;20435;-74
2021/07/24 06:21:16;;;;;;;6.30;4.88;;;24.50;96.70;;;;;;4906315;29;20044;-73
2021/07/24 06:23:44;;;;;;;9.52;6.30;;;24.60;96.70;;;;;;4905650;29;20044;-73
2021/07/24 06:26:12;;;;;;;6.72;5.10;;;24.60;96.70;;;;;;4908236;29;20202;-74
2021/07/24 06:28:41;;;;;;;6.13;5.50;;;24.60;96.70;;;;;;4908960;29;20044;-73
2021/07/24 06:31:09;;;;;;;8.95;6.05;;;24.70;96.70;;;;;;4924744;28;20056;-73
2021/07/24 06:33:37;;;;;;;10.13;6.00;;;24.80;96.70;;;;;;4911975;28;20044;-74
2021/07/24 06:36:05;;;;;;;11.40;6.22;;;24.90;96.70;;;;;;4906356;29;20072;-72
2021/07/24 06:38:35;;;;;;;6.80;5.97;;;25.00;96.70;;;;;;4906995;29;20059;-73
2021/07/24 06:41:05;;;;;;;7.43;5.90;;;25.00;96.70;;;;;;4909918;29;20084;-72
2021/07/24 06:43:33;;;;;;;7.70;6.60;;;25.00;96.70;;;;;;4898541;29;20103;-73
2021/07/24 06:46:09;;;;;;;12.93;7.35;;;25.20;96.70;;;;;;4910284;29;20052;-72
2021/07/24 06:48:37;;;;;;;10.60;6.17;;;25.10;96.70;;;;;;4905673;29;20667;-73
2021/07/24 06:51:06;;;;;;;6.68;5.97;;;25.20;96.70;;;;;;4936913;28;20063;-72
2021/07/24 06:53:36;;;;;;;8.60;6.22;;;25.20;96.70;;;;;;4905346;29;20573;-73
2021/07/24 06:56:05;;;;;;;10.73;6.53;;;25.30;96.70;;;;;;4907288;29;20076;-73
2021/07/24 06:58:34;;;;;;;8.95;7.07;;;25.30;96.70;;;;;;4919427;29;20482;-72
2021/07/24 07:01:06;;;;;;;8.05;6.25;;;25.40;96.70;;;;;;4909008;29;20040;-72
2021/07/24 07:03:35;;;;;;;9.25;6.82;;;25.40;96.70;;;;;;4907834;29;20052;-74
2021/07/24 07:06:07;;;;;;;8.63;7.00;;;25.50;96.70;;;;;;4935151;28;20041;-72
2021/07/24 07:08:37;;;;;;;8.27;7.15;;;25.50;96.70;;;;;;4908894;29;20083;-72
2021/07/24 07:11:06;;;;;;;9.35;7.75;;;25.60;96.70;;;;;;4908404;29;20586;-72
2021/07/24 07:13:35;;;;;;;10.48;7.75;;;25.60;96.70;;;;;;4909470;29;20135;-73
2021/07/24 07:16:05;;;;;;;9.82;7.93;;;25.70;96.70;;;;;;4908300;29;20399;-74
2021/07/24 07:18:34;;;;;;;8.82;7.90;;;25.70;96.70;;;;;;4924431;29;20055;-74
2021/07/24 07:21:03;;;;;;;11.80;7.97;;;25.70;96.70;;;;;;4907821;29;20398;-74
2021/07/24 07:23:31;;;;;;;11.32;7.75;;;25.80;96.70;;;;;;4922417;29;20044;-74
2021/07/24 07:26:01;;;;;;;11.65;8.40;;;25.90;96.70;;;;;;4937397;28;20470;-74
2021/07/24 07:28:30;;;;;;;20.33;18.23;;;26.00;96.70;;;;;;4908909;29;20201;-74
2021/07/24 07:31:00;;;;;;;9.75;8.75;;;26.00;96.70;;;;;;4908035;29;20047;-74
2021/07/24 07:33:28;;;;;;;10.57;7.70;;;26.20;96.70;;;;;;4907849;29;20068;-74
2021/07/24 07:35:57;;;;;;;9.00;7.72;;;26.30;96.70;;;;;;4902450;29;20040;-75
2021/07/24 07:38:25;;;;;;;9.45;7.72;;;26.30;96.70;;;;;;4924181;29;20131;-75
2021/07/24 07:40:54;;;;;;;10.23;7.65;;;26.30;96.70;;;;;;4902335;29;20509;-76
2021/07/24 07:43:23;;;;;;;11.35;8.93;;;26.30;96.70;;;;;;4891763;29;20051;-74
2021/07/24 07:45:52;;;;;;;8.48;7.10;;;26.40;96.70;;;;;;4902195;29;20045;-75
2021/07/24 07:48:20;;;;;;;7.88;7.00;;;26.40;96.70;;;;;;4919686;29;20049;-75
2021/07/24 07:50:48;;;;;;;9.43;6.70;;;26.50;96.70;;;;;;4903080;29;20146;-76
2021/07/24 07:53:17;;;;;;;8.63;7.57;;;26.70;96.70;;;;;;4922996;29;20052;-75
2021/07/24 07:55:46;;;;;;;24.00;8.82;;;26.70;96.70;;;;;;4937177;28;20051;-75
2021/07/24 07:58:14;;;;;;;10.25;7.28;;;26.80;96.70;;;;;;4907989;29;20047;-74
2021/07/24 08:00:44;;;;;;;10.50;9.18;;;26.80;96.70;;;;;;4938718;28;20565;-75
2021/07/24 08:03:13;;;;;;;10.80;6.80;;;26.90;96.70;;;;;;4918946;29;20049;-74
2021/07/24 08:05:41;;;;;;;8.07;7.18;;;26.90;96.70;;;;;;4938370;28;20553;-72
2021/07/24 08:08:09;;;;;;;7.45;6.22;;;27.10;96.70;;;;;;4905511;29;20207;-74
2021/07/24 08:10:38;;;;;;;7.47;5.90;;;27.20;96.70;;;;;;4907900;29;20092;-71
2021/07/24 08:13:13;;;;;;;7.18;6.47;;;27.10;96.70;;;;;;4903545;29;20050;-71
2021/07/24 08:15:44;;;;;;;8.97;7.20;;;27.20;96.70;;;;;;4904840;29;20072;-72
2021/07/24 08:18:13;;;;;;;10.38;6.75;;;27.30;96.70;;;;;;4908233;29;20083;-71
2021/07/24 08:20:42;;;;;;;8.07;6.00;;;27.30;96.70;;;;;;4905917;29;20520;-74
2021/07/24 08:23:13;;;;;;;8.77;6.13;;;27.30;96.70;;;;;;4909709;29;20043;-74
2021/07/24 08:25:42;;;;;;;9.70;8.73;;;27.30;96.70;;;;;;4921633;29;20067;-74
2021/07/24 08:28:11;;;;;;;6.65;5.20;;;27.40;96.70;;;;;;4906958;29;20096;-75
2021/07/24 08:30:39;;;;;;;6.60;5.90;;;27.50;96.70;;;;;;4923938;29;20455;-75
2021/07/24 08:33:09;;;;;;;8.35;5.45;;;27.50;96.70;;;;;;4916064;29;20084;-75
2021/07/24 08:35:40;;;;;;;5.20;4.70;;;27.50;96.70;;;;;;4909867;29;20047;-75
2021/07/24 08:38:09;;;;;;;6.78;5.07;;;27.60;96.70;;;;;;4905883;29;20105;-75
2021/07/24 08:40:38;;;;;;;8.52;4.70;;;27.60;96.70;;;;;;4906419;29;20044;-77
2021/07/24 08:43:09;;;;;;;5.20;3.97;;;27.70;96.70;;;;;;4892240;29;20044;-77
2021/07/24 08:45:38;;;;;;;5.15;4.32;;;27.80;96.70;;;;;;4914473;29;20438;-77
2021/07/24 08:48:10;;;;;;;5.82;4.82;;;27.90;96.70;;;;;;4911192;29;20498;-74
2021/07/24 08:50:43;;;;;;;5.63;4.95;;;28.00;96.70;;;;;;4913821;29;20048;-74
2021/07/24 08:53:20;;;;;;;5.95;5.18;;;28.20;96.70;;;;;;4894517;29;20040;-74
2021/07/24 08:55:49;;;;;;;7.20;5.18;;;28.30;96.70;;;;;;4925102;29;20060;-75
2021/07/24 08:58:18;;;;;;;6.53;4.93;;;28.50;96.70;;;;;;4912538;29;20069;-74
2021/07/24 09:00:47;;;;;;;7.60;5.68;;;28.60;96.70;;;;;;4915153;29;20048;-74
2021/07/24 09:03:21;;;;;;;6.18;5.57;;;28.60;96.70;;;;;;4910442;29;20060;-75
2021/07/24 09:05:51;;;;;;;9.57;5.63;;;28.70;96.70;;;;;;4913725;29;20044;-78
2021/07/24 09:08:25;;;;;;;7.13;5.88;;;28.90;96.70;;;;;;4912788;29;20052;-76
2021/07/24 09:10:55;;;;;;;6.53;5.85;;;28.90;96.70;;;;;;4912884;29;20071;-77
2021/07/24 09:13:23;;;;;;;8.07;5.13;;;29.10;96.70;;;;;;4917267;29;20047;-76
2021/07/24 09:15:54;;;;;;;7.05;5.95;;;29.30;96.70;;;;;;4913807;28;20044;-77
2021/07/24 09:18:24;;;;;;;9.88;5.65;;;29.40;96.70;;;;;;4928358;28;20142;-77
2021/07/24 09:20:54;;;;;;;7.90;5.30;;;29.60;96.70;;;;;;4912196;29;20454;-78
2021/07/24 09:23:28;;;;;;;10.32;6.20;;;29.70;96.70;;;;;;4908317;29;20149;-74
2021/07/24 09:25:57;;;;;;;13.75;9.85;;;29.70;96.70;;;;;;4903104;29;20048;-75
2021/07/24 09:28:25;;;;;;;9.85;6.28;;;29.80;96.70;;;;;;4939878;28;20099;-74
2021/07/24 09:30:53;;;;;;;5.65;5.15;;;29.80;95.90;;;;;;4905413;29;20469;-75
2021/07/24 09:33:23;;;;;;;6.47;4.47;;;29.80;95.20;;;;;;4908201;29;20058;-74
2021/07/24 09:36:05;;;;;;;6.65;5.53;;;29.80;96.10;;;;;;4905524;29;20044;-74
2021/07/24 09:38:34;;;;;;;6.97;4.40;;;29.80;96.70;;;;;;4905879;29;20047;-74
2021/07/24 09:41:05;;;;;;;6.20;4.95;;;29.90;95.40;;;;;;4903633;29;20123;-74
2021/07/24 09:43:35;;;;;;;5.60;5.00;;;30.00;96.20;;;;;;4907355;29;20059;-74
2021/07/24 09:46:14;;;;;;;5.50;5.00;;;30.10;96.70;;;;;;4901085;29;20084;-73
2021/07/24 09:48:45;;;;;;;6.53;4.53;;;30.20;96.30;;;;;;4907034;29;20056;-75
2021/07/24 09:51:15;;;;;;;4.70;4.30;;;30.20;96.40;;;;;;4904619;29;20086;-75
2021/07/24 09:53:44;;;;;;;7.15;4.40;;;30.20;95.60;;;;;;4906833;29;20131;-76
2021/07/24 09:56:19;;;;;;;6.28;4.70;;;30.20;95.40;;;;;;4901439;29;20072;-75
2021/07/24 09:58:47;;;;;;;8.75;4.40;;;30.40;94.50;;;;;;4906853;29;20201;-75
2021/07/24 10:01:19;;;;;;;5.85;4.60;;;30.70;94.10;;;;;;4939249;28;20100;-75
2021/07/24 10:03:51;;;;;;;7.75;4.78;;;31.10;94.50;;;;;;4915825;29;20047;-76
2021/07/24 10:06:21;;;;;;;5.57;4.47;;;31.30;92.90;;;;;;4913004;29;20593;-75
2021/07/24 10:08:51;;;;;;;5.63;4.13;;;31.40;91.30;;;;;;4907704;29;20311;-74
2021/07/24 10:11:20;;;;;;;12.13;4.10;;;31.30;90.00;;;;;;4911617;29;20048;-76
2021/07/24 10:13:48;;;;;;;5.30;3.35;;;31.20;90.80;;;;;;4911009;29;20134;-74
2021/07/24 10:16:19;;;;;;;5.93;3.80;;;31.20;88.50;;;;;;4911204;29;20402;-74
2021/07/24 10:18:50;;;;;;;5.10;3.35;;;31.20;88.90;;;;;;4910233;29;20088;-75
2021/07/24 10:21:19;;;;;;;5.60;3.55;;;31.40;87.10;;;;;;4910538;29;20165;-74
2021/07/24 10:23:47;;;;;;;4.20;2.80;;;31.50;85.50;;;;;;4906782;29;20043;-74
2021/07/24 10:26:22;;;;;;;5.10;3.03;;;31.50;81.50;;;;;;4909281;29;20087;-74
2021/07/24 10:28:54;;;;;;;5.45;3.35;;;31.50;81.70;;;;;;4907653;29;20051;-74
2021/07/24 10:31:25;;;;;;;6.78;3.60;;;31.30;82.70;;;;;;4910367;29;20032;-74
2021/07/24 10:33:58;;;;;;;3.38;3.00;;;31.20;83.50;;;;;;4906008;29;20046;-74
2021/07/24 10:36:34;;;;;;;4.50;3.53;;;31.20;85.20;;;;;;4940535;28;20056;-75
2021/07/24 10:39:05;;;;;;;5.03;3.40;;;31.00;85.20;;;;;;4906672;29;20048;-74
2021/07/24 10:41:43;;;;;;;6.80;3.92;;;30.80;86.30;;;;;;4910661;29;20099;-74
2021/07/24 10:44:14;;;;;;;8.90;6.68;;;30.60;87.80;;;;;;4909522;29;20776;-74
2021/07/24 10:47:11;;;;;;;7.22;3.28;;;30.50;87.70;;;;;;4922471;29;20788;-74
2021/07/24 10:49:58;;;;;;;4.65;3.47;;;30.40;86.50;;;;;;4908629;29;20095;-74
2021/07/24 10:52:45;;;;;;;3.47;3.15;;;30.30;87.60;;;;;;4920779;29;20103;-74
2021/07/24 10:55:14;;;;;;;;;;;30.30;86.60;;;;;;4909950;29;20068;-75
2021/07/24 10:58:05;;;;;;;7.72;3.30;;;30.30;86.30;;;;;;4892940;29;19931;-74
2021/07/24 11:00:50;;;;;;;4.50;3.35;;;30.30;85.40;;;;;;4904140;29;20141;-76
2021/07/24 11:03:33;;;;;;;9.25;3.25;;;30.40;85.70;;;;;;4909118;29;20054;-74
2021/07/24 11:06:25;;;;;;;5.05;3.10;;;30.50;85.90;;;;;;4904334;29;20147;-75
2021/07/24 11:09:10;;;;;;;4.72;2.95;;;30.60;85.90;;;;;;4923141;29;20139;-74
2021/07/24 11:11:40;;;;;;;4.72;3.05;;;31.00;85.60;;;;;;4908286;29;20055;-75
2021/07/24 11:14:09;;;;;;;4.15;2.92;;;31.30;83.90;;;;;;4909431;29;20054;-74
2021/07/24 11:17:14;;;;;;;6.53;3.30;;;31.60;84.70;;;;;;4908880;29;20421;-75
2021/07/24 11:19:44;;;;;;;6.07;3.70;;;31.50;83.00;;;;;;4910232;29;20040;-74
2021/07/24 11:22:14;;;;;;;5.07;3.38;;;31.50;83.50;;;;;;4922266;29;20426;-74
2021/07/24 11:24:45;;;;;;;4.40;3.45;;;31.40;84.20;;;;;;4909917;29;20498;-73
2021/07/24 11:27:15;;;;;;;5.88;3.63;;;31.30;84.60;;;;;;4907793;29;20054;-73
2021/07/24 11:29:44;;;;;;;6.63;3.65;;;31.40;84.50;;;;;;4919953;29;20589;-72
2021/07/24 11:32:13;;;;;;;3.95;3.55;;;31.70;84.50;;;;;;4938869;28;20538;-73
2021/07/24 11:34:43;;;;;;;6.95;3.20;;;31.90;83.60;;;;;;4922622;28;20048;-73
2021/07/24 11:37:13;;;;;;;5.35;3.67;;;32.00;83.40;;;;;;4921589;29;20116;-73
2021/07/24 11:39:41;;;;;;;4.90;3.50;;;32.00;84.70;;;;;;4908247;29;20415;-73
2021/07/24 11:42:20;;;;;;;4.80;3.35;;;32.00;84.40;;;;;;4911259;29;20048;-74
2021/07/24 11:44:49;;;;;;;6.28;3.55;;;31.90;84.90;;;;;;4890204;29;20833;-73
2021/07/24 11:47:17;;;;;;;3.88;3.33;;;32.10;86.90;;;;;;4917826;29;20055;-72
2021/07/24 11:49:46;;;;;;;7.13;3.53;;;32.30;87.10;;;;;;4904468;29;20044;-74
2021/07/24 11:52:22;;;;;;;4.97;3.55;;;32.30;85.70;;;;;;4910055;29;20055;-73
2021/07/24 11:54:51;;;;;;;4.63;4.13;;;32.30;87.20;;;;;;4902020;29;20120;-73
2021/07/24 11:57:30;;;;;;;4.63;3.70;;;32.40;87.00;;;;;;4905375;29;20055;-73
2021/07/24 11:59:59;;;;;;;3.95;3.53;;;32.70;86.50;;;;;;4890566;29;20135;-72
2021/07/24 12:02:27;;;;;;;7.20;4.05;;;32.80;85.60;;;;;;4938298;28;20166;-73
2021/07/24 12:04:56;;;;;;;4.53;3.78;;;32.80;87.40;;;;;;4906564;29;20036;-72
2021/07/24 12:07:25;;;;;;;4.72;3.83;;;32.90;86.50;;;;;;4907691;29;20067;-71
2021/07/24 12:09:54;;;;;;;5.18;3.95;;;33.10;86.70;;;;;;4904361;29;20519;-71
2021/07/24 12:12:24;;;;;;;4.03;3.42;;;33.20;86.10;;;;;;4907891;29;20044;-71
2021/07/24 12:14:55;;;;;;;5.57;3.70;;;33.30;85.10;;;;;;4907358;29;20076;-71
2021/07/24 12:17:25;;;;;;;6.25;4.43;;;33.40;84.10;;;;;;4922448;29;20048;-72
2021/07/24 12:19:54;;;;;;;5.60;3.42;;;33.30;84.40;;;;;;4907202;29;20052;-72
2021/07/24 12:22:27;;;;;;;32.28;8.18;;;33.30;84.80;;;;;;4907696;29;20437;-72
2021/07/24 12:25:12;;;;;;;5.20;3.90;;;33.40;85.30;;;;;;4913744;29;20054;-72
2021/07/24 12:27:48;;;;;;;7.35;3.85;;;33.70;84.60;;;;;;4928083;29;20486;-72
2021/07/24 12:30:26;;;;;;;7.40;3.70;;;33.70;83.60;;;;;;4910327;29;20036;-73
2021/07/24 12:32:55;;;;;;;10.80;4.03;;;33.80;83.80;;;;;;4912274;29;20039;-72
2021/07/24 12:35:25;;;;;;;22.15;5.70;;;34.10;84.00;;;;;;4913015;29;20048;-73
2021/07/24 12:38:04;;;;;;;6.25;4.10;;;34.30;82.30;;;;;;4905843;29;20044;-72
2021/07/24 12:40:32;;;;;;;5.03;3.63;;;34.40;83.50;;;;;;4913007;29;20602;-72
2021/07/24 12:43:09;;;;;;;4.93;3.47;;;34.40;83.20;;;;;;4911933;29;20581;-72
2021/07/24 12:45:38;;;;;;;5.55;3.90;;;34.20;83.30;;;;;;4912605;29;20075;-72
2021/07/24 12:48:19;;;;;;;4.63;3.00;;;34.00;83.50;;;;;;4911497;29;20063;-72
2021/07/24 12:51:07;;;;;;;4.40;3.92;;;33.90;83.50;;;;;;4926576;29;20083;-72
2021/07/24 12:53:36;;;;;;;6.30;3.78;;;33.70;83.20;;;;;;4922921;29;20531;-72
2021/07/24 12:56:05;;;;;;;4.55;3.30;;;33.60;83.00;;;;;;4908179;29;20127;-72
2021/07/24 12:58:35;;;;;;;5.05;3.47;;;33.60;82.40;;;;;;4905794;29;20044;-72
2021/07/24 13:01:10;;;;;;;6.18;3.75;;;33.60;81.40;;;;;;4907746;29;20428;-72
2021/07/24 13:03:39;;;;;;;4.40;3.40;;;33.50;81.70;;;;;;4903194;29;20131;-71
2021/07/24 13:06:07;;;;;;;5.65;3.40;;;33.50;81.90;;;;;;4902515;29;20498;-71
2021/07/24 13:08:37;;;;;;;6.20;3.60;;;33.50;82.50;;;;;;4931515;28;20063;-72
2021/07/24 13:11:08;;;;;;;7.32;3.53;;;33.50;83.10;;;;;;4902857;29;20040;-72
2021/07/24 13:13:36;;;;;;;4.35;3.67;;;33.50;81.60;;;;;;4937715;28;20056;-72
2021/07/24 13:16:06;;;;;;;6.22;3.17;;;33.50;82.20;;;;;;4902933;29;20522;-72
2021/07/24 13:18:35;;;;;;;4.43;3.35;;;33.40;81.80;;;;;;4902932;29;20111;-72
2021/07/24 13:21:03;;;;;;;3.95;3.33;;;33.30;81.90;;;;;;4903141;29;20037;-72
2021/07/24 13:23:31;;;;;;;5.88;3.47;;;33.20;81.70;;;;;;4907854;29;20050;-72
2021/07/24 13:28:14;;;;;;;4.15;3.58;;;33.20;82.10;;;;;;4907305;29;20040;-72
2021/07/24 13:28:55;;;;;;;4.53;3.72;;;33.30;82.00;;;;;;4903562;29;20135;-71
2021/07/24 13:31:24;;;;;;;7.38;3.88;;;33.40;81.60;;;;;;4916251;28;20055;-72
2021/07/24 13:33:53;;;;;;;4.00;3.50;;;33.60;81.50;;;;;;4936882;28;20052;-72
2021/07/24 13:36:21;;;;;;;5.03;3.05;;;33.70;81.10;;;;;;4901461;29;20605;-73
2021/07/24 13:38:50;;;;;;;7.35;3.47;;;33.60;80.40;;;;;;4920015;29;20527;-70
2021/07/24 13:41:20;;;;;;;5.00;3.28;;;33.40;81.50;;;;;;4904394;29;20107;-69
2021/07/24 13:43:50;;;;;;;5.57;3.83;;;33.20;81.30;;;;;;4907172;29;20075;-71
2021/07/24 13:46:20;;;;;;;5.53;3.92;;;33.10;81.90;;;;;;4906388;29;20364;-70
2021/07/24 13:48:48;;;;;;;5.03;3.63;;;33.00;81.50;;;;;;4914616;28;20135;-70
2021/07/24 13:51:24;;;;;;;4.25;3.67;;;32.80;81.70;;;;;;4906868;29;20517;-73
2021/07/24 13:53:53;;;;;;;6.30;3.50;;;32.70;82.70;;;;;;4906767;29;20717;-72
2021/07/24 13:56:23;;;;;;;7.95;3.60;;;32.50;83.50;;;;;;4899912;29;20053;-73
2021/07/24 13:58:51;;;;;;;6.53;3.83;;;32.40;83.00;;;;;;4909637;29;20490;-73
2021/07/24 14:01:19;;;;;;;9.07;3.90;;;32.40;84.40;;;;;;4905237;29;20044;-72
2021/07/24 14:03:48;;;;;;;7.72;3.33;;;32.20;87.10;;;;;;4905493;29;20044;-72
2021/07/24 14:06:16;;;;;;;7.20;3.75;;;32.10;86.60;;;;;;4936104;28;20074;-72
2021/07/24 14:08:45;;;;;;;8.52;3.30;;;32.10;86.30;;;;;;4905508;29;20048;-70
2021/07/24 14:11:15;;;;;;;5.60;3.95;;;32.20;86.20;;;;;;4918233;29;20044;-70
2021/07/24 14:13:46;;;;;;;10.70;3.85;;;32.20;86.20;;;;;;4900362;29;20495;-70
2021/07/24 14:16:15;;;;;;;5.45;3.47;;;32.30;86.40;;;;;;4905420;29;20036;-70
2021/07/24 14:18:45;;;;;;;6.03;3.25;;;32.80;85.60;;;;;;4903352;29;20104;-71
2021/07/24 14:21:17;;;;;;;7.15;3.30;;;33.20;83.40;;;;;;4906005;29;20043;-71
2021/07/24 14:23:46;;;;;;;10.60;4.00;;;33.50;82.70;;;;;;4899835;29;20518;-71
2021/07/24 14:26:15;;;;;;;3.92;3.50;;;33.90;82.20;;;;;;4907555;29;20047;-71
2021/07/24 14:28:45;;;;;;;8.05;3.55;;;34.10;81.30;;;;;;4920735;29;20406;-70
2021/07/24 14:31:13;;;;;;;6.75;3.45;;;34.10;80.70;;;;;;4889217;29;20427;-71
2021/07/24 14:33:41;;;;;;;3.88;3.35;;;33.90;81.20;;;;;;4903489;29;20115;-71
2021/07/24 14:36:13;;;;;;;7.40;3.95;;;33.70;82.00;;;;;;4906418;29;20040;-71
2021/07/24 14:38:46;;;;;;;5.38;4.00;;;33.80;82.90;;;;;;4907399;28;20569;-70
2021/07/24 14:41:15;;;;;;;6.75;3.90;;;34.10;82.40;;;;;;4905876;29;20055;-71
2021/07/24 14:43:45;;;;;;;7.22;4.45;;;34.60;81.80;;;;;;4904018;29;20044;-71
2021/07/24 14:46:20;;;;;;;6.10;4.32;;;34.90;82.00;;;;;;4905624;29;20060;-71
2021/07/24 14:48:49;;;;;;;6.03;4.45;;;34.60;82.20;;;;;;4907555;29;20052;-71
2021/07/24 14:51:19;;;;;;;5.68;4.43;;;35.00;81.90;;;;;;4907580;29;20040;-72
2021/07/24 14:53:49;;;;;;;4.35;3.25;;;35.20;80.70;;;;;;4907440;29;20036;-72
2021/07/24 14:56:18;;;;;;;4.57;3.60;;;35.40;79.30;;;;;;4892231;29;20048;-72
2021/07/24 14:58:49;;;;;;;7.68;3.97;;;35.60;79.20;;;;;;4909295;29;20627;-72
2021/07/24 15:01:21;;;;;;;6.75;3.70;;;35.70;78.60;;;;;;4908004;29;20052;-72
2021/07/24 15:03:51;;;;;;;5.95;3.53;;;35.80;77.80;;;;;;4908203;29;20040;-71
2021/07/24 15:06:19;;;;;;;5.45;3.58;;;35.60;78.80;;;;;;4909336;29;20036;-71
2021/07/24 15:08:47;;;;;;;6.82;3.80;;;35.70;79.10;;;;;;4920360;28;20053;-74
2021/07/24 15:11:15;;;;;;;6.22;3.60;;;35.70;77.80;;;;;;4908775;29;20063;-74
2021/07/24 15:13:44;;;;;;;5.97;4.32;;;35.30;79.00;;;;;;4905473;29;20499;-71
2021/07/24 15:16:14;;;;;;;4.00;3.55;;;35.40;79.60;;;;;;4905020;29;20044;-71
2021/07/24 15:18:42;;;;;;;8.18;4.60;;;35.00;79.70;;;;;;4906035;29;20148;-72
2021/07/24 15:21:15;;;;;;;6.63;4.50;;;34.90;80.80;;;;;;4907729;29;20088;-72
2021/07/24 15:23:44;;;;;;;5.70;4.40;;;34.70;82.00;;;;;;4909290;29;20083;-73
2021/07/24 15:26:13;;;;;;;5.07;4.57;;;35.20;81.60;;;;;;4906596;29;20072;-74
2021/07/24 15:28:42;;;;;;;7.43;4.65;;;34.80;81.50;;;;;;4902166;29;20940;-74
2021/07/24 15:31:10;;;;;;;7.30;4.82;;;34.30;82.40;;;;;;4903922;29;20048;-72
2021/07/24 15:33:41;;;;;;;7.85;4.63;;;34.00;83.80;;;;;;4923615;29;20063;-72
2021/07/24 15:36:11;;;;;;;5.30;4.55;;;33.80;83.70;;;;;;4907861;29;20060;-71
2021/07/24 15:38:39;;;;;;;7.07;4.47;;;34.30;83.50;;;;;;4907806;29;20056;-71
2021/07/24 15:41:11;;;;;;;8.75;4.65;;;34.50;83.30;;;;;;4908856;29;20044;-71
2021/07/24 15:43:39;;;;;;;5.57;4.57;;;34.20;82.40;;;;;;4909630;29;20047;-71
2021/07/24 15:46:07;;;;;;;5.13;4.63;;;33.80;83.20;;;;;;4907256;29;20052;-71
2021/07/24 15:48:37;;;;;;;10.77;5.78;;;33.50;84.70;;;;;;4899386;29;20048;-71
2021/07/24 15:51:09;;;;;;;6.75;5.15;;;33.20;85.90;;;;;;4905665;29;20569;-71
2021/07/24 15:53:37;;;;;;;5.88;5.28;;;33.00;86.60;;;;;;4909092;29;20664;-70
2021/07/24 15:56:10;;;;;;;7.95;5.15;;;32.90;87.10;;;;;;4903553;29;20044;-70
2021/07/24 15:58:38;;;;;;;8.10;5.25;;;32.90;87.30;;;;;;4902978;29;20048;-71
2021/07/24 16:01:11;;;;;;;8.48;5.20;;;34.00;85.70;;;;;;4905993;29;20044;-72
2021/07/24 16:03:40;;;;;;;6.95;5.38;;;34.00;85.40;;;;;;4906815;29;20640;-72
2021/07/24 16:06:11;;;;;;;6.45;4.93;;;34.30;85.20;;;;;;4903477;29;20123;-71
2021/07/24 16:08:39;;;;;;;9.35;4.97;;;35.00;83.70;;;;;;4898834;29;20613;-70
2021/07/24 16:11:07;;;;;;;4.95;4.20;;;35.70;82.80;;;;;;4908214;29;20047;-70
2021/07/24 16:13:36;;;;;;;5.35;4.32;;;36.10;81.60;;;;;;4907261;29;20052;-72
2021/07/24 16:16:06;;;;;;;5.25;4.57;;;36.60;81.20;;;;;;4921973;29;20063;-72
2021/07/24 16:18:35;;;;;;;6.10;4.97;;;37.20;80.30;;;;;;4937715;28;20048;-72
2021/07/24 16:21:03;;;;;;;5.90;4.80;;;37.30;79.30;;;;;;4907905;29;20070;-72
2021/07/24 16:23:33;;;;;;;6.47;4.40;;;37.70;78.30;;;;;;4905988;29;20490;-72
2021/07/24 16:26:01;;;;;;;5.60;4.53;;;38.00;77.20;;;;;;4905842;29;20048;-73
2021/07/24 16:28:30;;;;;;;6.25;4.45;;;38.10;76.90;;;;;;4903026;29;20123;-70
2021/07/24 16:30:59;;;;;;;8.90;4.78;;;38.20;76.90;;;;;;4907807;29;20040;-69
2021/07/24 16:33:29;;;;;;;4.57;4.18;;;38.30;76.50;;;;;;4903100;29;20466;-70
2021/07/24 16:35:57;;;;;;;5.32;4.60;;;38.50;75.80;;;;;;4905248;29;20047;-71
2021/07/24 16:38:26;;;;;;;4.82;4.38;;;38.90;75.60;;;;;;4905011;29;21955;-71
2021/07/24 16:40:56;;;;;;;6.15;4.35;;;38.80;75.10;;;;;;4923392;29;20040;-70
2021/07/24 16:43:24;;;;;;;4.72;3.80;;;38.90;74.50;;;;;;4911678;29;20048;-70
2021/07/24 16:45:52;;;;;;;6.95;4.00;;;39.00;72.90;;;;;;4907871;29;20064;-70
2021/07/24 16:48:21;;;;;;;8.10;4.20;;;39.10;72.70;;;;;;4908165;29;20450;-70
2021/07/24 16:50:59;;;;;;;9.65;3.20;;;38.50;73.50;;;;;;4908676;29;20082;-71
2021/07/24 16:53:27;;;;;;;6.40;3.20;;;37.40;77.40;;;;;;4909814;29;20512;-72
2021/07/24 16:55:57;;;;;;;5.32;3.15;;;36.40;79.00;;;;;;4907254;29;20047;-72
2021/07/24 16:58:26;;;;;;;5.53;3.08;;;36.00;79.60;;;;;;4907703;29;21140;-72
2021/07/24 17:00:54;;;;;;;8.38;3.38;;;35.50;79.80;;;;;;4923107;28;20056;-72
2021/07/24 17:03:23;;;;;;;7.70;2.92;;;35.70;79.60;;;;;;4904504;29;20048;-72
2021/07/24 17:05:51;;;;;;;6.18;3.00;;;36.00;77.90;;;;;;4900714;29;20067;-74
2021/07/24 17:08:19;;;;;;;7.07;2.95;;;35.30;77.70;;;;;;4903428;29;20051;-73
2021/07/24 17:10:48;;;;;;;3.53;2.80;;;33.90;80.40;;;;;;4910244;29;20036;-74
2021/07/24 17:13:18;;;;;;;4.65;3.00;;;33.30;81.20;;;;;;4905455;29;20131;-71
2021/07/24 17:15:46;;;;;;;4.20;2.80;;;33.60;80.90;;;;;;4906727;29;20491;-72
2021/07/24 17:18:15;;;;;;;5.47;2.42;;;34.30;79.40;;;;;;4902731;29;20506;-72
2021/07/24 17:20:43;;;;;;;5.03;2.80;;;34.00;78.60;;;;;;4906518;29;20525;-72
2021/07/24 17:23:11;;;;;;;6.30;2.85;;;33.20;80.10;;;;;;4917691;28;20056;-73
2021/07/24 17:25:39;;;;;;;7.18;2.72;;;32.70;80.70;;;;;;4904415;29;20064;-72
2021/07/24 17:28:07;;;;;;;5.45;3.20;;;32.30;81.70;;;;;;4903711;29;20040;-73
2021/07/24 17:30:37;;;;;;;4.43;2.60;;;32.30;82.20;;;;;;4918096;29;20726;-72
2021/07/24 17:33:05;;;;;;;5.45;3.92;;;32.20;82.20;;;;;;4911669;29;20056;-72
2021/07/24 17:35:36;;;;;;;12.50;9.05;;;32.50;82.00;;;;;;4900727;29;20492;-72
2021/07/24 17:38:05;;;;;;;14.23;11.20;;;33.00;81.00;;;;;;4902744;29;20045;-73
2021/07/24 17:40:33;;;;;;;10.32;7.03;;;33.00;81.00;;;;;;4905504;29;21098;-72
2021/07/24 17:43:01;;;;;;;5.75;3.28;;;33.20;80.90;;;;;;4909565;29;20071;-72
2021/07/24 17:45:30;;;;;;;8.43;3.05;;;33.60;79.80;;;;;;4902208;29;20060;-72
2021/07/24 17:48:00;;;;;;;9.75;3.25;;;33.60;80.10;;;;;;4907715;29;20036;-72
2021/07/24 17:50:28;;;;;;;4.80;3.13;;;33.70;80.20;;;;;;4903905;29;20470;-72
2021/07/24 17:52:58;;;;;;;5.50;2.58;;;33.70;80.40;;;;;;4907662;29;20051;-73
2021/07/24 17:55:27;;;;;;;4.78;2.80;;;33.40;80.90;;;;;;4905621;29;20143;-73
2021/07/24 17:57:55;;;;;;;4.40;2.70;;;33.10;80.80;;;;;;4906440;29;20044;-72
2021/07/24 18:00:23;;;;;;;4.43;2.80;;;32.60;81.60;;;;;;4904940;29;20107;-72
2021/07/24 18:02:51;;;;;;;6.97;3.03;;;32.20;83.20;;;;;;4918285;29;20123;-72
2021/07/24 18:05:21;;;;;;;6.32;3.08;;;32.10;85.10;;;;;;4903956;29;20076;-72
2021/07/24 18:07:49;;;;;;;6.30;2.88;;;31.90;85.80;;;;;;4902903;29;20048;-72
2021/07/24 18:10:18;;;;;;;8.43;3.10;;;31.70;85.50;;;;;;4903895;29;20048;-72
2021/07/24 18:12:46;;;;;;;6.60;3.58;;;31.50;85.90;;;;;;4906930;29;20554;-72
2021/07/24 18:15:14;;;;;;;5.05;2.78;;;31.40;86.40;;;;;;4904453;29;20040;-71
2021/07/24 18:17:42;;;;;;;5.38;2.72;;;31.20;86.90;;;;;;4905730;29;20052;-72
2021/07/24 18:20:11;;;;;;;5.32;3.10;;;31.10;87.10;;;;;;4903083;29;20357;-72
2021/07/24 18:22:41;;;;;;;5.93;3.17;;;30.90;87.40;;;;;;4909606;29;20052;-71
2021/07/24 18:25:10;;;;;;;4.57;2.80;;;30.80;88.00;;;;;;4909195;29;20048;-72
2021/07/24 18:27:39;;;;;;;8.40;3.00;;;30.60;87.50;;;;;;4911745;29;20044;-72
2021/07/24 18:30:08;;;;;;;6.35;2.95;;;30.50;87.60;;;;;;4909593;29;20047;-72
2021/07/24 18:32:39;;;;;;;5.30;3.00;;;30.40;87.20;;;;;;4940983;28;20056;-73
2021/07/24 18:35:08;;;;;;;6.05;2.75;;;30.30;87.90;;;;;;4907982;29;20245;-73
2021/07/24 18:37:36;;;;;;;5.50;3.13;;;30.30;87.50;;;;;;4923818;29;20058;-72
2021/07/24 18:40:08;;;;;;;6.15;2.72;;;30.30;87.80;;;;;;4904167;29;20078;-72
2021/07/24 18:42:37;;;;;;;7.35;3.00;;;30.30;88.10;;;;;;4907621;29;20180;-72
2021/07/24 18:45:07;;;;;;;3.95;2.80;;;30.10;88.40;;;;;;4909454;29;20434;-73
2021/07/24 18:47:35;;;;;;;6.65;3.03;;;30.00;88.90;;;;;;4907737;29;20036;-72